sensor_id;sensor_type;location;lat;lon;timestamp;P1;durP1;ratioP1;P2;durP2;ratioP2
18711;SDS011;9485;49.386;8.674;2023-04-06T00:03:06;18.23;;;10.13;;
18711;SDS011;9485;49.386;8.674;2023-04-06T00:08:28;13.47;;;9.07;;
18711;SDS011;9485;49.386;8.674;2023-04-06T00:13:49;13.57;;;8.53;;
18711;SDS011;9485;49.386;8.674;2023-04-06T00:19:09;12.63;;;8.57;;
18711;SDS011;9485;49.386;8.674;2023-04-06T00:24:31;10.80;;;8.60;;
18711;SDS011;9485;49.386;8.674;2023-04-06T00:29:52;9.83;;;7.33;;
18711;SDS011;9485;49.386;8.674;2023-04-06T00:35:12;9.13;;;7.43;;
18711;SDS011;9485;49.386;8.674;2023-04-06T00:40:35;9.47;;;7.57;;
18711;SDS011;9485;49.386;8.674;2023-04-06T00:45:58;11.20;;;7.93;;
18711;SDS011;9485;49.386;8.674;2023-04-06T00:51:19;10.83;;;7.73;;
18711;SDS011;9485;49.386;8.674;2023-04-06T00:56:42;10.40;;;8.03;;
18711;SDS011;9485;49.386;8.674;2023-04-06T01:02:03;13.27;;;8.87;;
18711;SDS011;9485;49.386;8.674;2023-04-06T01:07:31;9.60;;;7.40;;
18711;SDS011;9485;49.386;8.674;2023-04-06T01:13:04;11.53;;;7.80;;
18711;SDS011;9485;49.386;8.674;2023-04-06T01:18:46;10.13;;;7.87;;
18711;SDS011;9485;49.386;8.674;2023-04-06T01:24:15;10.80;;;7.83;;
18711;SDS011;9485;49.386;8.674;2023-04-06T01:30:06;11.40;;;7.47;;
18711;SDS011;9485;49.386;8.674;2023-04-06T01:35:39;10.80;;;7.97;;
18711;SDS011;9485;49.386;8.674;2023-04-06T01:41:08;12.17;;;7.80;;
18711;SDS011;9485;49.386;8.674;2023-04-06T01:46:39;10.93;;;7.70;;
18711;SDS011;9485;49.386;8.674;2023-04-06T01:52:03;8.40;;;7.03;;
18711;SDS011;9485;49.386;8.674;2023-04-06T01:57:26;7.87;;;6.70;;
18711;SDS011;9485;49.386;8.674;2023-04-06T02:02:55;12.33;;;6.90;;
18711;SDS011;9485;49.386;8.674;2023-04-06T02:08:18;9.30;;;7.57;;
18711;SDS011;9485;49.386;8.674;2023-04-06T02:13:41;9.10;;;7.70;;
18711;SDS011;9485;49.386;8.674;2023-04-06T02:19:02;10.67;;;8.60;;
18711;SDS011;9485;49.386;8.674;2023-04-06T02:24:23;10.70;;;7.90;;
18711;SDS011;9485;49.386;8.674;2023-04-06T02:29:45;7.47;;;6.53;;
18711;SDS011;9485;49.386;8.674;2023-04-06T02:35:08;10.50;;;7.77;;
18711;SDS011;9485;49.386;8.674;2023-04-06T02:40:30;11.10;;;7.17;;
18711;SDS011;9485;49.386;8.674;2023-04-06T02:46:01;9.10;;;6.33;;
18711;SDS011;9485;49.386;8.674;2023-04-06T02:51:26;6.97;;;5.73;;
18711;SDS011;9485;49.386;8.674;2023-04-06T02:56:52;8.47;;;6.17;;
18711;SDS011;9485;49.386;8.674;2023-04-06T03:02:16;6.53;;;5.83;;
18711;SDS011;9485;49.386;8.674;2023-04-06T03:07:37;10.73;;;7.10;;
18711;SDS011;9485;49.386;8.674;2023-04-06T03:13:01;9.80;;;7.50;;
18711;SDS011;9485;49.386;8.674;2023-04-06T03:18:42;9.23;;;6.23;;
18711;SDS011;9485;49.386;8.674;2023-04-06T03:24:05;7.53;;;6.00;;
18711;SDS011;9485;49.386;8.674;2023-04-06T03:29:27;7.63;;;5.37;;
18711;SDS011;9485;49.386;8.674;2023-04-06T03:34:50;6.07;;;5.43;;
18711;SDS011;9485;49.386;8.674;2023-04-06T03:40:10;6.80;;;5.47;;
18711;SDS011;9485;49.386;8.674;2023-04-06T03:45:31;6.10;;;5.47;;
18711;SDS011;9485;49.386;8.674;2023-04-06T03:50:54;6.63;;;4.73;;
18711;SDS011;9485;49.386;8.674;2023-04-06T03:56:14;9.10;;;6.07;;
18711;SDS011;9485;49.386;8.674;2023-04-06T04:01:35;5.47;;;4.97;;
18711;SDS011;9485;49.386;8.674;2023-04-06T04:06:57;7.57;;;5.67;;
18711;SDS011;9485;49.386;8.674;2023-04-06T04:12:18;5.50;;;5.00;;
18711;SDS011;9485;49.386;8.674;2023-04-06T04:17:38;6.40;;;4.97;;
18711;SDS011;9485;49.386;8.674;2023-04-06T04:23:00;6.67;;;5.23;;
18711;SDS011;9485;49.386;8.674;2023-04-06T04:28:24;6.50;;;5.17;;
18711;SDS011;9485;49.386;8.674;2023-04-06T04:33:48;6.17;;;5.07;;
18711;SDS011;9485;49.386;8.674;2023-04-06T04:39:17;5.93;;;5.20;;
18711;SDS011;9485;49.386;8.674;2023-04-06T04:44:43;5.97;;;5.30;;
18711;SDS011;9485;49.386;8.674;2023-04-06T04:50:06;6.43;;;4.70;;
18711;SDS011;9485;49.386;8.674;2023-04-06T04:55:32;6.03;;;5.00;;
18711;SDS011;9485;49.386;8.674;2023-04-06T05:00:54;8.50;;;5.63;;
18711;SDS011;9485;49.386;8.674;2023-04-06T05:06:15;5.60;;;4.93;;
18711;SDS011;9485;49.386;8.674;2023-04-06T05:11:38;6.33;;;5.30;;
18711;SDS011;9485;49.386;8.674;2023-04-06T05:16:59;5.30;;;4.77;;
18711;SDS011;9485;49.386;8.674;2023-04-06T05:22:19;4.73;;;4.33;;
18711;SDS011;9485;49.386;8.674;2023-04-06T05:27:50;4.97;;;4.20;;
18711;SDS011;9485;49.386;8.674;2023-04-06T05:33:23;5.07;;;4.37;;
18711;SDS011;9485;49.386;8.674;2023-04-06T05:38:54;8.90;;;5.13;;
18711;SDS011;9485;49.386;8.674;2023-04-06T05:44:34;9.63;;;5.07;;
18711;SDS011;9485;49.386;8.674;2023-04-06T05:50:06;7.17;;;5.33;;
18711;SDS011;9485;49.386;8.674;2023-04-06T05:55:31;6.80;;;5.17;;
18711;SDS011;9485;49.386;8.674;2023-04-06T06:01:12;6.27;;;5.07;;
18711;SDS011;9485;49.386;8.674;2023-04-06T06:06:37;5.37;;;4.83;;
18711;SDS011;9485;49.386;8.674;2023-04-06T06:12:07;7.33;;;5.23;;
18711;SDS011;9485;49.386;8.674;2023-04-06T06:17:29;7.43;;;5.97;;
18711;SDS011;9485;49.386;8.674;2023-04-06T06:22:50;9.10;;;6.60;;
18711;SDS011;9485;49.386;8.674;2023-04-06T06:28:14;9.90;;;7.23;;
18711;SDS011;9485;49.386;8.674;2023-04-06T06:33:37;10.43;;;7.63;;
18711;SDS011;9485;49.386;8.674;2023-04-06T06:38:58;10.80;;;7.80;;
18711;SDS011;9485;49.386;8.674;2023-04-06T06:44:20;10.83;;;7.70;;
18711;SDS011;9485;49.386;8.674;2023-04-06T06:49:42;12.60;;;7.10;;
18711;SDS011;9485;49.386;8.674;2023-04-06T06:55:04;13.03;;;7.27;;
18711;SDS011;9485;49.386;8.674;2023-04-06T07:00:25;10.60;;;7.07;;
18711;SDS011;9485;49.386;8.674;2023-04-06T07:05:49;12.80;;;7.57;;
18711;SDS011;9485;49.386;8.674;2023-04-06T07:11:13;8.97;;;6.73;;
18711;SDS011;9485;49.386;8.674;2023-04-06T07:16:34;9.57;;;7.30;;
18711;SDS011;9485;49.386;8.674;2023-04-06T07:21:57;8.63;;;6.67;;
18711;SDS011;9485;49.386;8.674;2023-04-06T07:27:19;7.87;;;6.37;;
18711;SDS011;9485;49.386;8.674;2023-04-06T07:32:40;6.87;;;6.17;;
18711;SDS011;9485;49.386;8.674;2023-04-06T07:38:03;7.67;;;6.27;;
18711;SDS011;9485;49.386;8.674;2023-04-06T07:43:25;8.00;;;6.70;;
18711;SDS011;9485;49.386;8.674;2023-04-06T07:48:46;7.10;;;6.40;;
18711;SDS011;9485;49.386;8.674;2023-04-06T07:54:10;7.43;;;5.80;;
18711;SDS011;9485;49.386;8.674;2023-04-06T07:59:31;8.07;;;5.90;;
18711;SDS011;9485;49.386;8.674;2023-04-06T08:04:52;6.50;;;5.57;;
18711;SDS011;9485;49.386;8.674;2023-04-06T08:10:14;7.47;;;5.77;;
18711;SDS011;9485;49.386;8.674;2023-04-06T08:15:38;6.50;;;5.70;;
18711;SDS011;9485;49.386;8.674;2023-04-06T08:20:58;5.70;;;4.70;;
18711;SDS011;9485;49.386;8.674;2023-04-06T08:26:21;6.77;;;5.40;;
18711;SDS011;9485;49.386;8.674;2023-04-06T08:31:45;5.67;;;4.73;;
18711;SDS011;9485;49.386;8.674;2023-04-06T08:37:06;5.77;;;4.67;;
18711;SDS011;9485;49.386;8.674;2023-04-06T08:42:31;6.07;;;5.00;;
18711;SDS011;9485;49.386;8.674;2023-04-06T08:47:54;5.47;;;4.97;;
18711;SDS011;9485;49.386;8.674;2023-04-06T08:53:18;5.03;;;4.53;;
18711;SDS011;9485;49.386;8.674;2023-04-06T08:58:41;5.87;;;5.00;;
18711;SDS011;9485;49.386;8.674;2023-04-06T09:04:03;6.33;;;5.30;;
18711;SDS011;9485;49.386;8.674;2023-04-06T09:09:28;5.70;;;5.03;;
18711;SDS011;9485;49.386;8.674;2023-04-06T09:14:50;5.23;;;4.60;;
18711;SDS011;9485;49.386;8.674;2023-04-06T09:20:11;7.40;;;4.50;;
18711;SDS011;9485;49.386;8.674;2023-04-06T09:25:32;6.40;;;5.45;;
18711;SDS011;9485;49.386;8.674;2023-04-06T09:30:55;5.10;;;4.37;;
18711;SDS011;9485;49.386;8.674;2023-04-06T09:36:16;6.23;;;4.87;;
18711;SDS011;9485;49.386;8.674;2023-04-06T09:41:37;7.77;;;4.90;;
18711;SDS011;9485;49.386;8.674;2023-04-06T09:47:01;5.63;;;4.57;;
18711;SDS011;9485;49.386;8.674;2023-04-06T09:52:29;6.50;;;5.53;;
18711;SDS011;9485;49.386;8.674;2023-04-06T09:57:55;5.85;;;4.72;;
18711;SDS011;9485;49.386;8.674;2023-04-06T10:03:29;7.65;;;5.32;;
18711;SDS011;9485;49.386;8.674;2023-04-06T10:08:58;4.93;;;4.50;;
18711;SDS011;9485;49.386;8.674;2023-04-06T10:14:28;6.45;;;4.50;;
18711;SDS011;9485;49.386;8.674;2023-04-06T10:19:53;6.03;;;4.60;;
18711;SDS011;9485;49.386;8.674;2023-04-06T10:25:27;4.40;;;4.00;;
18711;SDS011;9485;49.386;8.674;2023-04-06T10:30:49;5.75;;;4.55;;
18711;SDS011;9485;49.386;8.674;2023-04-06T10:36:23;5.25;;;4.70;;
18711;SDS011;9485;49.386;8.674;2023-04-06T10:41:46;6.38;;;4.05;;
18711;SDS011;9485;49.386;8.674;2023-04-06T10:47:15;4.30;;;3.85;;
18711;SDS011;9485;49.386;8.674;2023-04-06T10:52:39;4.38;;;3.60;;
18711;SDS011;9485;49.386;8.674;2023-04-06T10:57:59;5.28;;;3.60;;
18711;SDS011;9485;49.386;8.674;2023-04-06T11:03:20;3.15;;;2.80;;
18711;SDS011;9485;49.386;8.674;2023-04-06T11:08:43;5.55;;;3.15;;
18711;SDS011;9485;49.386;8.674;2023-04-06T11:14:03;4.00;;;3.45;;
18711;SDS011;9485;49.386;8.674;2023-04-06T11:19:24;3.85;;;3.45;;
18711;SDS011;9485;49.386;8.674;2023-04-06T11:24:46;3.90;;;3.50;;
18711;SDS011;9485;49.386;8.674;2023-04-06T11:30:09;5.03;;;3.58;;
18711;SDS011;9485;49.386;8.674;2023-04-06T11:35:30;5.00;;;3.42;;
18711;SDS011;9485;49.386;8.674;2023-04-06T11:40:56;4.60;;;4.20;;
18711;SDS011;9485;49.386;8.674;2023-04-06T11:46:17;5.78;;;5.18;;
18711;SDS011;9485;49.386;8.674;2023-04-06T11:51:39;4.40;;;4.00;;
18711;SDS011;9485;49.386;8.674;2023-04-06T11:57:01;3.90;;;3.45;;
18711;SDS011;9485;49.386;8.674;2023-04-06T12:02:23;5.15;;;4.50;;
18711;SDS011;9485;49.386;8.674;2023-04-06T12:07:43;4.50;;;4.10;;
18711;SDS011;9485;49.386;8.674;2023-04-06T12:13:06;4.55;;;3.95;;
18711;SDS011;9485;49.386;8.674;2023-04-06T12:18:26;4.05;;;3.22;;
18711;SDS011;9485;49.386;8.674;2023-04-06T12:23:47;5.43;;;4.13;;
18711;SDS011;9485;49.386;8.674;2023-04-06T12:29:09;4.55;;;4.00;;
18711;SDS011;9485;49.386;8.674;2023-04-06T12:34:31;4.53;;;4.07;;
18711;SDS011;9485;49.386;8.674;2023-04-06T12:39:52;4.25;;;3.70;;
18711;SDS011;9485;49.386;8.674;2023-04-06T12:45:14;4.07;;;3.67;;
18711;SDS011;9485;49.386;8.674;2023-04-06T12:50:35;5.47;;;3.63;;
18711;SDS011;9485;49.386;8.674;2023-04-06T12:55:56;4.63;;;3.95;;
18711;SDS011;9485;49.386;8.674;2023-04-06T13:01:20;3.28;;;2.97;;
18711;SDS011;9485;49.386;8.674;2023-04-06T13:06:40;3.72;;;3.40;;
18711;SDS011;9485;49.386;8.674;2023-04-06T13:12:01;4.20;;;3.80;;
18711;SDS011;9485;49.386;8.674;2023-04-06T13:17:23;4.60;;;4.13;;
18711;SDS011;9485;49.386;8.674;2023-04-06T13:22:46;5.53;;;3.88;;
18711;SDS011;9485;49.386;8.674;2023-04-06T13:28:07;4.50;;;3.60;;
18711;SDS011;9485;49.386;8.674;2023-04-06T13:33:30;4.97;;;3.90;;
18711;SDS011;9485;49.386;8.674;2023-04-06T13:38:51;4.07;;;3.67;;
18711;SDS011;9485;49.386;8.674;2023-04-06T13:44:13;5.70;;;4.40;;
18711;SDS011;9485;49.386;8.674;2023-04-06T13:49:35;5.07;;;3.78;;
18711;SDS011;9485;49.386;8.674;2023-04-06T13:54:56;4.75;;;3.80;;
18711;SDS011;9485;49.386;8.674;2023-04-06T14:00:17;4.28;;;3.88;;
18711;SDS011;9485;49.386;8.674;2023-04-06T14:05:40;4.97;;;4.20;;
18711;SDS011;9485;49.386;8.674;2023-04-06T14:11:00;4.45;;;4.00;;
18711;SDS011;9485;49.386;8.674;2023-04-06T14:16:22;4.00;;;3.60;;
18711;SDS011;9485;49.386;8.674;2023-04-06T14:21:45;3.88;;;3.47;;
18711;SDS011;9485;49.386;8.674;2023-04-06T14:27:06;7.68;;;4.93;;
18711;SDS011;9485;49.386;8.674;2023-04-06T14:32:27;5.78;;;4.38;;
18711;SDS011;9485;49.386;8.674;2023-04-06T14:37:49;5.20;;;4.07;;
18711;SDS011;9485;49.386;8.674;2023-04-06T14:43:10;6.78;;;4.63;;
18711;SDS011;9485;49.386;8.674;2023-04-06T14:48:31;5.32;;;4.53;;
18711;SDS011;9485;49.386;8.674;2023-04-06T14:53:52;5.72;;;4.85;;
18711;SDS011;9485;49.386;8.674;2023-04-06T14:59:13;5.90;;;4.50;;
18711;SDS011;9485;49.386;8.674;2023-04-06T15:04:33;6.13;;;4.38;;
18711;SDS011;9485;49.386;8.674;2023-04-06T15:09:56;6.07;;;4.68;;
18711;SDS011;9485;49.386;8.674;2023-04-06T15:15:17;6.33;;;5.13;;
18711;SDS011;9485;49.386;8.674;2023-04-06T15:20:37;5.57;;;4.27;;
18711;SDS011;9485;49.386;8.674;2023-04-06T15:26:00;5.38;;;4.18;;
18711;SDS011;9485;49.386;8.674;2023-04-06T15:31:22;5.60;;;4.50;;
18711;SDS011;9485;49.386;8.674;2023-04-06T15:36:43;7.03;;;5.00;;
18711;SDS011;9485;49.386;8.674;2023-04-06T15:42:06;4.73;;;3.93;;
18711;SDS011;9485;49.386;8.674;2023-04-06T15:47:27;4.60;;;3.97;;
18711;SDS011;9485;49.386;8.674;2023-04-06T15:52:48;3.87;;;3.50;;
18711;SDS011;9485;49.386;8.674;2023-04-06T15:58:11;3.87;;;3.27;;
18711;SDS011;9485;49.386;8.674;2023-04-06T16:03:31;5.10;;;3.87;;
18711;SDS011;9485;49.386;8.674;2023-04-06T16:08:52;6.00;;;3.70;;
18711;SDS011;9485;49.386;8.674;2023-04-06T16:14:15;4.17;;;3.70;;
18711;SDS011;9485;49.386;8.674;2023-04-06T16:19:35;5.87;;;4.43;;
18711;SDS011;9485;49.386;8.674;2023-04-06T16:24:56;5.57;;;3.90;;
18711;SDS011;9485;49.386;8.674;2023-04-06T16:30:19;5.90;;;3.40;;
18711;SDS011;9485;49.386;8.674;2023-04-06T16:35:42;4.40;;;3.30;;
18711;SDS011;9485;49.386;8.674;2023-04-06T16:41:03;4.60;;;2.90;;
18711;SDS011;9485;49.386;8.674;2023-04-06T16:46:29;5.20;;;3.30;;
18711;SDS011;9485;49.386;8.674;2023-04-06T16:51:50;4.60;;;2.63;;
18711;SDS011;9485;49.386;8.674;2023-04-06T16:57:11;2.40;;;2.00;;
18711;SDS011;9485;49.386;8.674;2023-04-06T17:02:34;3.07;;;2.40;;
18711;SDS011;9485;49.386;8.674;2023-04-06T17:07:55;4.47;;;2.80;;
18711;SDS011;9485;49.386;8.674;2023-04-06T17:13:15;2.77;;;1.90;;
18711;SDS011;9485;49.386;8.674;2023-04-06T17:18:38;4.33;;;2.17;;
18711;SDS011;9485;49.386;8.674;2023-04-06T17:23:59;1.70;;;1.60;;
18711;SDS011;9485;49.386;8.674;2023-04-06T17:29:20;1.90;;;1.80;;
18711;SDS011;9485;49.386;8.674;2023-04-06T17:34:42;2.67;;;1.73;;
18711;SDS011;9485;49.386;8.674;2023-04-06T17:40:04;3.33;;;1.90;;
18711;SDS011;9485;49.386;8.674;2023-04-06T17:45:26;1.87;;;1.73;;
18711;SDS011;9485;49.386;8.674;2023-04-06T17:50:49;2.60;;;2.40;;
18711;SDS011;9485;49.386;8.674;2023-04-06T17:56:10;4.47;;;3.03;;
18711;SDS011;9485;49.386;8.674;2023-04-06T18:01:30;3.57;;;3.13;;
18711;SDS011;9485;49.386;8.674;2023-04-06T18:06:52;4.90;;;3.90;;
18711;SDS011;9485;49.386;8.674;2023-04-06T18:12:13;5.97;;;3.77;;
18711;SDS011;9485;49.386;8.674;2023-04-06T18:17:34;4.07;;;3.47;;
18711;SDS011;9485;49.386;8.674;2023-04-06T18:22:56;4.70;;;3.13;;
18711;SDS011;9485;49.386;8.674;2023-04-06T18:28:17;5.03;;;3.33;;
18711;SDS011;9485;49.386;8.674;2023-04-06T18:33:37;5.10;;;3.43;;
18711;SDS011;9485;49.386;8.674;2023-04-06T18:38:59;5.30;;;3.87;;
18711;SDS011;9485;49.386;8.674;2023-04-06T18:44:20;5.57;;;3.83;;
18711;SDS011;9485;49.386;8.674;2023-04-06T18:49:41;7.37;;;4.53;;
18711;SDS011;9485;49.386;8.674;2023-04-06T18:55:03;5.07;;;3.90;;
18711;SDS011;9485;49.386;8.674;2023-04-06T19:00:29;4.80;;;4.10;;
18711;SDS011;9485;49.386;8.674;2023-04-06T19:05:50;4.10;;;3.63;;
18711;SDS011;9485;49.386;8.674;2023-04-06T19:11:12;6.37;;;4.23;;
18711;SDS011;9485;49.386;8.674;2023-04-06T19:16:32;4.67;;;4.27;;
18711;SDS011;9485;49.386;8.674;2023-04-06T19:21:58;5.73;;;4.20;;
18711;SDS011;9485;49.386;8.674;2023-04-06T19:27:20;4.40;;;3.97;;
18711;SDS011;9485;49.386;8.674;2023-04-06T19:32:41;4.20;;;3.73;;
18711;SDS011;9485;49.386;8.674;2023-04-06T19:38:02;5.67;;;3.80;;
18711;SDS011;9485;49.386;8.674;2023-04-06T19:43:24;4.70;;;3.90;;
18711;SDS011;9485;49.386;8.674;2023-04-06T19:48:45;5.63;;;4.30;;
18711;SDS011;9485;49.386;8.674;2023-04-06T19:54:05;6.37;;;4.27;;
18711;SDS011;9485;49.386;8.674;2023-04-06T19:59:27;5.20;;;4.03;;
18711;SDS011;9485;49.386;8.674;2023-04-06T20:04:48;4.57;;;3.90;;
18711;SDS011;9485;49.386;8.674;2023-04-06T20:10:09;5.13;;;4.63;;
18711;SDS011;9485;49.386;8.674;2023-04-06T20:15:33;5.03;;;4.13;;
18711;SDS011;9485;49.386;8.674;2023-04-06T20:20:54;6.03;;;5.07;;
18711;SDS011;9485;49.386;8.674;2023-04-06T20:26:14;5.53;;;4.87;;
18711;SDS011;9485;49.386;8.674;2023-04-06T20:31:36;6.50;;;5.27;;
18711;SDS011;9485;49.386;8.674;2023-04-06T20:36:57;7.00;;;5.07;;
18711;SDS011;9485;49.386;8.674;2023-04-06T20:42:17;5.43;;;4.47;;
18711;SDS011;9485;49.386;8.674;2023-04-06T20:47:42;4.90;;;4.20;;
18711;SDS011;9485;49.386;8.674;2023-04-06T20:53:02;5.67;;;4.50;;
18711;SDS011;9485;49.386;8.674;2023-04-06T20:58:23;5.10;;;4.60;;
18711;SDS011;9485;49.386;8.674;2023-04-06T21:03:46;6.03;;;5.27;;
18711;SDS011;9485;49.386;8.674;2023-04-06T21:09:06;7.17;;;5.20;;
18711;SDS011;9485;49.386;8.674;2023-04-06T21:14:27;7.37;;;4.63;;
18711;SDS011;9485;49.386;8.674;2023-04-06T21:19:49;5.47;;;4.50;;
18711;SDS011;9485;49.386;8.674;2023-04-06T21:25:11;6.67;;;5.13;;
18711;SDS011;9485;49.386;8.674;2023-04-06T21:30:32;6.97;;;5.43;;
18711;SDS011;9485;49.386;8.674;2023-04-06T21:35:56;6.67;;;5.57;;
18711;SDS011;9485;49.386;8.674;2023-04-06T21:41:17;5.90;;;5.30;;
18711;SDS011;9485;49.386;8.674;2023-04-06T21:46:37;7.70;;;5.70;;
18711;SDS011;9485;49.386;8.674;2023-04-06T21:52:00;6.50;;;5.83;;
18711;SDS011;9485;49.386;8.674;2023-04-06T21:57:20;6.77;;;5.70;;
18711;SDS011;9485;49.386;8.674;2023-04-06T22:02:41;6.33;;;5.50;;
18711;SDS011;9485;49.386;8.674;2023-04-06T22:08:04;5.33;;;4.87;;
18711;SDS011;9485;49.386;8.674;2023-04-06T22:13:25;5.33;;;4.33;;
18711;SDS011;9485;49.386;8.674;2023-04-06T22:18:48;6.23;;;4.90;;
18711;SDS011;9485;49.386;8.674;2023-04-06T22:24:10;5.83;;;4.60;;
18711;SDS011;9485;49.386;8.674;2023-04-06T22:29:31;5.23;;;4.03;;
18711;SDS011;9485;49.386;8.674;2023-04-06T22:34:52;4.50;;;4.10;;
18711;SDS011;9485;49.386;8.674;2023-04-06T22:40:14;5.43;;;4.57;;
18711;SDS011;9485;49.386;8.674;2023-04-06T22:45:35;4.83;;;4.37;;
18711;SDS011;9485;49.386;8.674;2023-04-06T22:50:56;5.43;;;4.93;;
18711;SDS011;9485;49.386;8.674;2023-04-06T22:56:18;5.63;;;4.60;;
18711;SDS011;9485;49.386;8.674;2023-04-06T23:01:39;4.37;;;3.83;;
18711;SDS011;9485;49.386;8.674;2023-04-06T23:07:00;4.50;;;4.03;;
18711;SDS011;9485;49.386;8.674;2023-04-06T23:12:22;5.53;;;4.50;;
18711;SDS011;9485;49.386;8.674;2023-04-06T23:17:43;6.70;;;4.63;;
18711;SDS011;9485;49.386;8.674;2023-04-06T23:23:04;4.97;;;4.40;;
18711;SDS011;9485;49.386;8.674;2023-04-06T23:28:26;5.07;;;4.43;;
18711;SDS011;9485;49.386;8.674;2023-04-06T23:33:46;5.13;;;4.63;;
18711;SDS011;9485;49.386;8.674;2023-04-06T23:39:07;5.60;;;4.63;;
18711;SDS011;9485;49.386;8.674;2023-04-06T23:44:29;5.87;;;4.90;;
18711;SDS011;9485;49.386;8.674;2023-04-06T23:49:49;4.67;;;4.27;;
18711;SDS011;9485;49.386;8.674;2023-04-06T23:55:10;6.27;;;4.73;;
